Time;durP1;ratioP1;P1;durP2;ratioP2;P2;SDS_P1;SDS_P2;PMS_P1;PMS_P2;Temp;Humidity;BMP_temperature;BMP_pressure;BME280_temperature;BME280_humidity;BME280_pressure;Samples;Min_cycle;Max_cycle;Signal;HPM_P1;HPM_P2
2021/12/15 00:01:15;;;;;;;34.22;20.98;;;9.20;99.90;;;;;;4811195;29;20314;-91
2021/12/15 00:03:42;;;;;;;41.90;21.45;;;9.20;99.90;;;;;;4791500;29;20047;-91
2021/12/15 00:06:13;;;;;;;40.35;21.48;;;9.20;99.90;;;;;;4788841;29;20066;-91
2021/12/15 00:08:40;;;;;;;35.60;21.75;;;9.20;99.90;;;;;;4801444;29;20065;-91
2021/12/15 00:11:06;;;;;;;38.40;19.98;;;9.20;99.90;;;;;;4807039;29;20074;-92
2021/12/15 00:13:33;;;;;;;38.17;20.48;;;9.20;99.90;;;;;;4805686;29;20039;-90
2021/12/15 00:15:59;;;;;;;34.33;19.38;;;9.20;99.90;;;;;;4800782;29;20418;-91
2021/12/15 00:18:25;;;;;;;37.53;20.40;;;9.20;99.90;;;;;;4778041;29;20052;-91
2021/12/15 00:20:51;;;;;;;34.70;20.70;;;9.20;99.90;;;;;;4788018;29;20057;-91
2021/12/15 00:23:17;;;;;;;35.67;20.42;;;9.70;99.90;;;;;;4758693;29;1186836;-89
2021/12/15 00:25:44;;;;;;;39.00;20.27;;;9.20;99.90;;;;;;4812494;29;20137;-90
2021/12/15 00:28:11;;;;;;;36.47;21.58;;;9.20;99.90;;;;;;4797767;29;20057;-91
2021/12/15 00:30:37;;;;;;;;;;;9.20;99.90;;;;;;4806371;29;20055;-91
2021/12/15 00:33:07;;;;;;;29.92;17.73;;;9.20;99.90;;;;;;4833330;29;19929;-91
2021/12/15 00:35:35;;;;;;;34.33;19.58;;;9.20;99.90;;;;;;4803739;29;20061;-90
2021/12/15 00:38:01;;;;;;;29.13;17.50;;;9.20;99.90;;;;;;4807075;29;20379;-90
2021/12/15 00:40:28;;;;;;;35.47;19.88;;;9.20;99.90;;;;;;4789327;29;20051;-90
2021/12/15 00:42:54;;;;;;;37.60;19.73;;;9.20;99.90;;;;;;4806313;29;20050;-91
2021/12/15 00:45:20;;;;;;;33.90;17.58;;;9.20;99.90;;;;;;4788853;29;20467;-91
2021/12/15 00:47:46;;;;;;;32.90;19.25;;;9.20;99.90;;;;;;4805451;29;20513;-91
2021/12/15 00:50:16;;;;;;;34.63;19.67;;;9.20;99.90;;;;;;4803436;29;20474;-91
2021/12/15 00:52:43;;;;;;;39.33;19.00;;;9.20;99.90;;;;;;4805824;29;20470;-91
2021/12/15 00:55:12;;;;;;;28.15;18.23;;;9.20;99.90;;;;;;4789716;29;20068;-90
2021/12/15 00:57:42;;;;;;;34.47;20.05;;;9.30;99.90;;;;;;4790175;29;20529;-90
2021/12/15 01:00:12;;;;;;;30.95;18.50;;;9.30;99.90;;;;;;4803443;29;20120;-92
2021/12/15 01:02:39;;;;;;;33.85;20.33;;;9.30;99.90;;;;;;4806008;29;20081;-91
2021/12/15 01:05:07;;;;;;;40.13;22.52;;;9.30;99.90;;;;;;4814823;29;20038;-91
2021/12/15 01:07:33;;;;;;;31.75;17.08;;;9.30;99.90;;;;;;4820348;29;20103;-91
2021/12/15 01:10:00;;;;;;;33.27;18.33;;;9.20;99.90;;;;;;4775502;29;20494;-92
2021/12/15 01:20:53;;;;;;;29.10;17.45;;;9.30;99.90;;;;;;4807352;29;20094;-91
2021/12/15 01:23:23;;;;;;;29.77;19.23;;;9.30;99.90;;;;;;4791365;29;20052;-91
2021/12/15 01:26:11;;;;;;;39.17;18.70;;;9.30;99.90;;;;;;4808421;29;20050;-90
2021/12/15 01:28:38;;;;;;;30.17;16.95;;;9.30;99.90;;;;;;4808113;29;20050;-91
2021/12/15 01:31:07;;;;;;;30.90;18.83;;;9.30;99.90;;;;;;4808266;29;20065;-90
2021/12/15 01:33:34;;;;;;;29.75;17.75;;;9.30;99.90;;;;;;4808635;29;20545;-91
2021/12/15 01:36:02;;;;;;;31.70;18.73;;;9.30;99.90;;;;;;4808553;29;20133;-91
2021/12/15 01:38:31;;;;;;;28.70;16.67;;;9.30;99.90;;;;;;4792238;29;20047;-90
2021/12/15 01:40:58;;;;;;;31.02;17.92;;;9.30;99.90;;;;;;4791377;29;20424;-91
2021/12/15 01:46:52;;;;;;;35.20;18.27;;;9.40;99.90;;;;;;4806482;29;20054;-91
2021/12/15 01:46:56;;;;;;;27.20;17.13;;;9.30;99.90;;;;;;4825505;29;20049;-90
2021/12/15 01:49:37;;;;;;;24.35;17.83;;;9.30;99.90;;;;;;4806900;29;20062;-90
2021/12/15 01:52:24;;;;;;;32.45;18.20;;;9.30;99.90;;;;;;4792191;29;20056;-90
2021/12/15 01:54:57;;;;;;;28.63;18.02;;;9.30;99.90;;;;;;4809724;29;20057;-90
2021/12/15 01:57:27;;;;;;;33.67;17.15;;;9.30;99.90;;;;;;4783767;29;20051;-91
2021/12/15 01:59:56;;;;;;;27.42;17.48;;;9.40;99.90;;;;;;4790214;29;20133;-91
2021/12/15 02:02:22;;;;;;;25.08;16.25;;;9.40;99.90;;;;;;4805164;29;20051;-90
2021/12/15 02:04:50;;;;;;;31.13;18.08;;;9.40;99.90;;;;;;4792322;29;20051;-90
2021/12/15 02:07:19;;;;;;;34.85;18.60;;;9.40;99.90;;;;;;4792356;29;20051;-91
2021/12/15 02:12:17;;;;;;;35.00;19.20;;;9.40;99.90;;;;;;4806787;29;20062;-89
2021/12/15 02:14:42;;;;;;;32.58;19.52;;;8.80;99.90;;;;;;4796528;29;20047;-91
2021/12/15 02:17:09;;;;;;;29.03;18.73;;;9.40;99.90;;;;;;4806839;29;20050;-90
2021/12/15 02:19:34;;;;;;;31.45;18.67;;;9.40;99.90;;;;;;4775721;29;20051;-89
2021/12/15 02:22:00;;;;;;;30.87;19.17;;;9.40;99.90;;;;;;4793724;29;20414;-91
2021/12/15 02:24:28;;;;;;;33.77;18.70;;;9.40;99.90;;;;;;4788185;29;20047;-91
2021/12/15 02:26:58;;;;;;;28.45;18.27;;;9.40;99.90;;;;;;4803688;29;20058;-91
2021/12/15 02:29:25;;;;;;;38.38;18.52;;;9.40;99.90;;;;;;4797789;29;20521;-91
2021/12/15 02:31:58;;;;;;;33.80;17.88;;;9.40;99.90;;;;;;4818606;29;20399;-90
2021/12/15 02:39:41;;;;;;;35.60;19.42;;;9.40;99.90;;;;;;4846142;29;20062;-89
2021/12/15 02:42:08;;;;;;;34.20;18.63;;;9.40;99.90;;;;;;4802118;29;20047;-89
2021/12/15 02:44:34;;;;;;;30.88;18.55;;;9.40;99.90;;;;;;4791971;29;20045;-91
2021/12/15 02:47:00;;;;;;;39.27;21.57;;;9.40;99.90;;;;;;4800903;29;20054;-90
2021/12/15 02:49:28;;;;;;;35.17;20.55;;;9.40;99.90;;;;;;4805260;29;20410;-91
2021/12/15 02:51:57;;;;;;;43.47;19.70;;;9.50;99.90;;;;;;4791142;29;20038;-91
2021/12/15 02:54:24;;;;;;;40.05;19.92;;;9.40;99.90;;;;;;4789597;29;20505;-91
2021/12/15 02:56:53;;;;;;;34.88;19.58;;;9.40;99.90;;;;;;4791468;29;20061;-90
2021/12/15 02:59:26;;;;;;;34.42;19.98;;;9.40;99.90;;;;;;4805371;29;20043;-90
2021/12/15 03:02:11;;;;;;;35.40;19.55;;;9.40;99.90;;;;;;4806766;29;20042;-91
2021/12/15 03:04:45;;;;;;;33.00;18.95;;;9.40;99.90;;;;;;4805993;29;20058;-90
2021/12/15 03:07:23;;;;;;;39.08;19.20;;;9.40;99.90;;;;;;4797744;29;20439;-90
2021/12/15 03:15:31;;;;;;;30.35;17.85;;;9.40;99.90;;;;;;4806258;29;20125;-91
2021/12/15 03:18:03;;;;;;;33.78;18.80;;;9.40;99.90;;;;;;4792342;29;20050;-90
2021/12/15 03:20:32;;;;;;;34.25;19.27;;;9.40;99.90;;;;;;4788870;29;20054;-91
2021/12/15 03:22:58;;;;;;;34.50;19.30;;;9.50;99.90;;;;;;4790415;29;20066;-91
2021/12/15 03:25:28;;;;;;;42.55;19.90;;;9.30;99.90;;;;;;4810062;29;20111;-90
2021/12/15 03:33:39;;;;;;;33.60;19.08;;;9.40;99.90;;;;;;4804566;29;20300;-90
2021/12/15 03:36:12;;;;;;;42.33;21.70;;;9.40;99.90;;;;;;4819401;29;20055;-90
2021/12/15 03:38:39;;;;;;;37.95;21.27;;;9.40;99.90;;;;;;4805449;29;20069;-91
2021/12/15 03:41:07;;;;;;;38.15;20.77;;;9.40;99.90;;;;;;4800181;29;20134;-91
2021/12/15 03:43:34;;;;;;;37.45;20.30;;;9.40;99.90;;;;;;4786154;29;20043;-90
2021/12/15 03:46:06;;;;;;;40.20;20.20;;;9.40;99.90;;;;;;4789039;29;20111;-90
2021/12/15 03:48:35;;;;;;;35.33;19.15;;;9.40;99.90;;;;;;4801904;29;20134;-90
2021/12/15 03:51:02;;;;;;;38.03;20.05;;;9.40;99.90;;;;;;4806370;29;20054;-90
2021/12/15 03:53:28;;;;;;;39.78;21.63;;;9.40;99.90;;;;;;4823957;29;20128;-90
2021/12/15 03:55:54;;;;;;;34.60;19.00;;;9.40;99.90;;;;;;4790228;29;20053;-89
2021/12/15 03:58:24;;;;;;;36.28;19.60;;;9.40;99.90;;;;;;4813172;29;20081;-91
2021/12/15 04:00:56;;;;;;;35.70;21.20;;;9.40;99.90;;;;;;4821923;29;20449;-89
2021/12/15 04:03:26;;;;;;;36.58;20.30;;;9.40;99.90;;;;;;4805590;29;20046;-90
2021/12/15 04:05:53;;;;;;;37.55;20.33;;;9.40;99.90;;;;;;4790756;29;20094;-90
2021/12/15 04:08:19;;;;;;;37.03;20.92;;;9.40;99.90;;;;;;4805912;29;20050;-90
2021/12/15 04:10:45;;;;;;;40.58;22.45;;;9.40;99.90;;;;;;4805583;29;20054;-90
2021/12/15 04:13:13;;;;;;;36.33;20.58;;;9.40;99.90;;;;;;4805879;29;20129;-90
2021/12/15 04:15:47;;;;;;;40.85;21.83;;;9.40;99.90;;;;;;4790303;29;20069;-89
2021/12/15 04:18:14;;;;;;;42.40;20.85;;;9.40;99.90;;;;;;4789649;29;20468;-90
2021/12/15 04:20:40;;;;;;;;;;;9.40;99.90;;;;;;4788474;29;20054;-91
2021/12/15 04:23:10;;;;;;;37.42;21.25;;;9.30;99.90;;;;;;4790631;29;19981;-90
2021/12/15 04:25:38;;;;;;;44.25;21.83;;;9.30;99.90;;;;;;4805364;29;20058;-91
2021/12/15 04:28:24;;;;;;;38.65;20.92;;;9.30;99.90;;;;;;4821192;29;20038;-90
2021/12/15 04:30:57;;;;;;;42.13;21.58;;;9.30;99.90;;;;;;4820082;29;20117;-91
2021/12/15 04:33:24;;;;;;;37.40;22.15;;;9.30;99.90;;;;;;4806019;29;20046;-90
2021/12/15 04:35:52;;;;;;;48.42;23.48;;;9.30;99.90;;;;;;4791419;29;20058;-90
2021/12/15 04:38:18;;;;;;;40.33;21.80;;;9.30;99.90;;;;;;4791077;29;20521;-91
2021/12/15 04:40:46;;;;;;;41.92;20.70;;;9.30;99.90;;;;;;4803603;29;20094;-90
2021/12/15 04:43:11;;;;;;;42.28;21.52;;;9.30;99.90;;;;;;4806268;29;20050;-90
2021/12/15 04:45:38;;;;;;;49.03;23.53;;;9.30;99.90;;;;;;4815343;29;20073;-90
2021/12/15 04:48:06;;;;;;;41.28;22.33;;;9.30;99.90;;;;;;4802233;29;20045;-89
2021/12/15 04:50:32;;;;;;;41.22;22.50;;;9.30;99.90;;;;;;4818310;29;20129;-87
2021/12/15 04:53:02;;;;;;;35.40;21.10;;;9.30;99.90;;;;;;4808978;29;20133;-90
2021/12/15 04:55:30;;;;;;;48.17;23.52;;;9.30;99.90;;;;;;4804477;29;20042;-90
2021/12/15 04:57:58;;;;;;;39.92;22.88;;;9.30;99.90;;;;;;4780472;29;20111;-90
2021/12/15 05:00:28;;;;;;;44.60;23.48;;;9.30;99.90;;;;;;4816783;29;20078;-90
2021/12/15 05:02:54;;;;;;;40.92;21.52;;;9.30;99.90;;;;;;4791580;29;20034;-90
2021/12/15 05:05:22;;;;;;;45.83;23.23;;;9.30;99.90;;;;;;4805191;29;20331;-91
2021/12/15 05:07:49;;;;;;;34.83;21.88;;;9.30;99.90;;;;;;4792076;29;20482;-90
2021/12/15 05:10:16;;;;;;;40.40;20.75;;;9.30;99.90;;;;;;4797836;29;20374;-90
2021/12/15 05:12:43;;;;;;;44.20;23.17;;;9.30;99.90;;;;;;4806870;29;20113;-92
2021/12/15 05:15:10;;;;;;;45.42;23.27;;;9.30;99.90;;;;;;4821799;29;20078;-90
2021/12/15 05:17:35;;;;;;;39.20;23.25;;;9.30;99.90;;;;;;4793351;29;20073;-89
2021/12/15 05:20:04;;;;;;;38.80;22.80;;;9.30;99.90;;;;;;4794711;29;20050;-90
2021/12/15 05:22:32;;;;;;;33.13;21.40;;;9.30;99.90;;;;;;4806932;29;20050;-91
2021/12/15 05:24:58;;;;;;;37.05;22.33;;;9.30;99.90;;;;;;4792454;29;20109;-91
2021/12/15 05:27:24;;;;;;;46.15;23.63;;;9.20;99.90;;;;;;4807837;29;20062;-89
2021/12/15 05:29:50;;;;;;;44.03;22.93;;;9.30;99.90;;;;;;4822993;29;20107;-91
2021/12/15 05:32:18;;;;;;;46.95;23.67;;;9.30;99.90;;;;;;4800737;29;20046;-91
2021/12/15 05:34:46;;;;;;;37.47;20.98;;;9.30;99.90;;;;;;4807593;29;20051;-90
2021/12/15 05:37:12;;;;;;;42.03;22.35;;;9.30;99.90;;;;;;4792339;29;20050;-89
2021/12/15 05:39:40;;;;;;;42.55;22.40;;;9.30;99.90;;;;;;4822902;29;20134;-89
2021/12/15 05:42:06;;;;;;;45.40;24.73;;;9.30;99.90;;;;;;4814595;29;20050;-90
2021/12/15 05:44:32;;;;;;;43.38;21.92;;;9.30;99.90;;;;;;4792365;29;20085;-90
2021/12/15 05:47:01;;;;;;;40.10;24.67;;;9.30;99.90;;;;;;4807344;29;20096;-90
2021/12/15 05:49:27;;;;;;;47.40;24.90;;;9.30;99.90;;;;;;4817433;29;20103;-90
2021/12/15 05:51:54;;;;;;;48.78;23.95;;;9.30;99.90;;;;;;4807414;29;20042;-90
2021/12/15 05:54:20;;;;;;;46.00;24.35;;;9.30;99.90;;;;;;4807083;29;20114;-90
2021/12/15 05:56:46;;;;;;;46.60;23.92;;;9.30;99.90;;;;;;4791587;29;20046;-90
2021/12/15 05:59:11;;;;;;;41.27;23.10;;;9.30;99.90;;;;;;4819209;29;20125;-91
2021/12/15 06:01:38;;;;;;;40.33;23.63;;;9.30;99.90;;;;;;4806973;29;20050;-90
2021/12/15 06:04:06;;;;;;;44.25;25.02;;;9.30;99.90;;;;;;4790618;29;20546;-90
2021/12/15 06:06:35;;;;;;;44.67;23.58;;;9.30;99.90;;;;;;4778537;29;20046;-90
2021/12/15 06:09:06;;;;;;;43.65;23.85;;;9.30;99.90;;;;;;4806954;29;20062;-91
2021/12/15 06:11:32;;;;;;;47.13;23.70;;;9.30;99.90;;;;;;4807489;29;20375;-91
2021/12/15 06:13:58;;;;;;;48.80;25.60;;;9.30;99.90;;;;;;4807173;29;20065;-91
2021/12/15 06:16:24;;;;;;;48.73;23.47;;;9.30;99.90;;;;;;4780250;29;20050;-90
2021/12/15 06:18:50;;;;;;;37.07;20.87;;;9.30;99.90;;;;;;4778100;29;20042;-91
2021/12/15 06:21:18;;;;;;;41.60;24.13;;;9.30;99.90;;;;;;4786350;29;20054;-90
2021/12/15 06:23:44;;;;;;;41.63;22.45;;;9.30;99.90;;;;;;4805855;29;20060;-91
2021/12/15 06:26:10;;;;;;;43.88;24.58;;;9.20;99.90;;;;;;4806943;29;20058;-90
2021/12/15 06:28:37;;;;;;;45.38;25.08;;;9.30;99.90;;;;;;4814816;29;20101;-90
2021/12/15 06:31:07;;;;;;;43.00;24.38;;;9.30;99.90;;;;;;4806729;29;20334;-91
2021/12/15 06:33:34;;;;;;;41.00;24.38;;;9.30;99.90;;;;;;4805681;29;20049;-90
2021/12/15 06:36:01;;;;;;;41.78;24.25;;;9.30;99.90;;;;;;4776840;29;20121;-90
2021/12/15 06:38:30;;;;;;;46.92;23.80;;;9.30;99.90;;;;;;4810047;29;20057;-89
2021/12/15 06:40:58;;;;;;;46.33;25.23;;;9.30;99.90;;;;;;4806679;29;20517;-90
2021/12/15 06:43:24;;;;;;;39.22;22.65;;;9.30;99.90;;;;;;4808105;29;20054;-91
2021/12/15 06:46:20;;;;;;;43.15;23.48;;;9.30;99.90;;;;;;4806735;29;20062;-89
2021/12/15 06:59:42;;;;;;;36.47;21.88;;;9.30;99.90;;;;;;4804703;29;20062;-89
2021/12/15 07:02:08;;;;;;;47.05;23.60;;;9.30;99.90;;;;;;4814988;29;20042;-89
2021/12/15 07:04:34;;;;;;;34.20;20.80;;;9.30;99.90;;;;;;4792301;29;20575;-90
2021/12/15 07:07:04;;;;;;;44.58;24.33;;;9.30;99.90;;;;;;4815173;29;20493;-90
2021/12/15 07:09:31;;;;;;;45.20;22.80;;;9.30;99.90;;;;;;4790467;29;20046;-90
2021/12/15 07:11:59;;;;;;;41.30;22.10;;;9.30;99.90;;;;;;4810722;29;20125;-88
2021/12/15 07:14:24;;;;;;;31.80;20.83;;;9.30;99.90;;;;;;4804511;29;20374;-95
2021/12/15 07:16:52;;;;;;;38.83;23.73;;;9.30;99.90;;;;;;4807007;29;20042;-89
2021/12/15 07:19:30;;;;;;;41.00;22.30;;;9.30;99.90;;;;;;4813687;29;20089;-87
2021/12/15 07:22:28;;;;;;;39.67;23.05;;;9.30;99.90;;;;;;4777079;29;20402;-91
2021/12/15 07:24:53;;;;;;;43.77;23.53;;;9.30;99.90;;;;;;4791763;29;20150;-90
2021/12/15 07:27:19;;;;;;;40.77;22.40;;;9.30;99.90;;;;;;4796082;29;20125;-89
2021/12/15 07:29:45;;;;;;;43.50;21.83;;;9.30;99.90;;;;;;4818865;29;20046;-89
2021/12/15 07:32:11;;;;;;;38.93;22.47;;;9.30;99.90;;;;;;4777143;29;20110;-89
2021/12/15 07:34:36;;;;;;;38.60;21.47;;;9.30;99.90;;;;;;4815073;29;20078;-89
2021/12/15 07:37:02;;;;;;;43.60;20.83;;;9.30;99.90;;;;;;4805472;29;20463;-89
2021/12/15 07:39:28;;;;;;;39.85;21.15;;;9.30;99.90;;;;;;4817109;29;20050;-89
2021/12/15 07:42:04;;;;;;;33.07;19.53;;;9.30;99.90;;;;;;4814687;29;20053;-87
2021/12/15 07:44:31;;;;;;;47.78;22.40;;;9.30;99.90;;;;;;4795022;29;20047;-87
2021/12/15 07:46:57;;;;;;;34.08;20.70;;;9.30;99.90;;;;;;4790907;29;20047;-87
2021/12/15 07:49:25;;;;;;;35.58;21.05;;;9.30;99.90;;;;;;4798648;29;20046;-87
2021/12/15 07:51:59;;;;;;;37.05;20.48;;;9.30;99.90;;;;;;4806035;29;20050;-87
2021/12/15 07:54:26;;;;;;;34.60;19.98;;;9.30;99.90;;;;;;4823646;29;20055;-87
2021/12/15 07:56:52;;;;;;;36.58;19.20;;;9.80;99.90;;;;;;4805289;29;20057;-90
2021/12/15 07:59:18;;;;;;;34.57;19.20;;;9.30;99.90;;;;;;4808336;29;20047;-91
2021/12/15 08:01:44;;;;;;;34.50;17.60;;;9.30;99.90;;;;;;4797389;29;20046;-90
2021/12/15 08:04:10;;;;;;;29.58;17.77;;;9.30;99.90;;;;;;4790188;29;20482;-94
2021/12/15 08:06:36;;;;;;;31.83;18.43;;;9.30;99.90;;;;;;4791643;29;20056;-91
2021/12/15 08:09:03;;;;;;;36.20;18.43;;;9.30;99.90;;;;;;4815172;29;20058;-94
2021/12/15 08:11:29;;;;;;;33.45;18.35;;;9.30;99.90;;;;;;4810384;29;20046;-92
2021/12/15 08:13:57;;;;;;;31.13;18.23;;;8.60;99.90;;;;;;4804639;29;20038;-89
2021/12/15 08:16:23;;;;;;;30.67;18.02;;;9.30;99.90;;;;;;4805764;29;20592;-88
2021/12/15 08:18:49;;;;;;;36.05;18.38;;;9.30;99.90;;;;;;4816506;29;20050;-89
2021/12/15 08:21:15;;;;;;;28.73;17.37;;;9.30;99.90;;;;;;4807109;29;20038;-91
2021/12/15 08:23:41;;;;;;;34.63;16.95;;;9.30;99.90;;;;;;4808670;29;20111;-91
2021/12/15 08:26:07;;;;;;;27.83;18.35;;;9.30;99.90;;;;;;4812903;29;20058;-92
2021/12/15 08:28:33;;;;;;;35.87;17.60;;;9.30;99.90;;;;;;4812507;29;20139;-93
2021/12/15 08:30:59;;;;;;;29.27;17.98;;;9.40;99.90;;;;;;4807258;29;20145;-93
2021/12/15 08:33:26;;;;;;;31.15;18.75;;;9.40;99.90;;;;;;4814220;29;20039;-94
2021/12/15 08:35:58;;;;;;;34.88;18.38;;;9.40;99.90;;;;;;4780125;29;20054;-94
2021/12/15 08:38:26;;;;;;;28.67;17.75;;;9.40;99.90;;;;;;4816983;29;20146;-96
2021/12/15 08:40:53;;;;;;;30.27;17.13;;;9.40;99.90;;;;;;4800938;29;20065;-88
2021/12/15 08:43:19;;;;;;;39.95;17.00;;;9.40;99.90;;;;;;4816522;29;20406;-95
2021/12/15 08:45:53;;;;;;;31.77;17.40;;;9.40;99.90;;;;;;4804940;29;20567;-94
2021/12/15 08:48:19;;;;;;;26.58;16.02;;;9.40;99.90;;;;;;4808331;29;20054;-94
2021/12/15 08:50:45;;;;;;;30.63;16.83;;;9.40;99.90;;;;;;4809735;29;20049;-95
2021/12/15 08:53:12;;;;;;;31.48;17.52;;;9.40;99.90;;;;;;4827906;29;20068;-93
2021/12/15 08:55:45;;;;;;;35.95;18.45;;;9.40;99.90;;;;;;4799327;29;20054;-94
2021/12/15 08:58:12;;;;;;;34.35;17.27;;;9.40;99.90;;;;;;4807222;29;20070;-90
2021/12/15 09:00:43;;;;;;;32.28;16.40;;;9.40;99.90;;;;;;4807738;29;20065;-91
2021/12/15 09:03:11;;;;;;;30.25;16.90;;;9.40;99.90;;;;;;4802501;29;20042;-91
2021/12/15 09:05:38;;;;;;;29.08;16.55;;;9.40;99.90;;;;;;4802962;29;20081;-92
2021/12/15 09:08:05;;;;;;;30.63;15.98;;;9.40;99.90;;;;;;4811180;29;20053;-89
2021/12/15 09:10:34;;;;;;;29.20;17.48;;;9.40;99.90;;;;;;4810941;29;20051;-90
2021/12/15 09:13:01;;;;;;;26.63;16.08;;;9.50;99.90;;;;;;4798264;29;20042;-91
2021/12/15 09:15:27;;;;;;;30.67;17.25;;;9.50;99.90;;;;;;4808078;29;20062;-93
2021/12/15 09:17:53;;;;;;;24.90;14.20;;;9.50;99.90;;;;;;4798267;29;20107;-90
2021/12/15 09:20:26;;;;;;;31.85;16.45;;;9.50;99.90;;;;;;4794755;29;20396;-91
2021/12/15 09:22:52;;;;;;;29.60;17.02;;;9.50;99.90;;;;;;4809336;29;20086;-91
2021/12/15 09:25:18;;;;;;;29.02;16.77;;;9.50;99.90;;;;;;4809502;29;20054;-90
2021/12/15 09:27:45;;;;;;;33.60;17.27;;;9.40;99.90;;;;;;4819358;29;20054;-91
2021/12/15 09:30:19;;;;;;;26.55;15.85;;;9.60;99.90;;;;;;4776788;29;20127;-91
2021/12/15 09:32:48;;;;;;;23.58;14.85;;;9.50;99.90;;;;;;4783105;29;20068;-90
2021/12/15 09:35:16;;;;;;;28.77;16.15;;;9.60;99.90;;;;;;4809469;29;20050;-91
2021/12/15 09:37:42;;;;;;;33.17;16.33;;;9.60;99.90;;;;;;4788724;29;20050;-90
2021/12/15 09:40:10;;;;;;;24.25;15.73;;;9.60;99.90;;;;;;4777407;29;20070;-90
2021/12/15 09:42:39;;;;;;;28.23;15.80;;;9.60;99.90;;;;;;4781070;29;20465;-90
2021/12/15 10:04:34;;;;;;;23.10;13.13;;;9.20;99.90;;;;;;4792614;29;20089;-90
2021/12/15 10:07:18;;;;;;;26.80;13.18;;;9.70;99.90;;;;;;4776425;29;20150;-90
2021/12/15 10:18:43;;;;;;;21.65;13.40;;;9.80;99.90;;;;;;4810967;29;20129;-90
2021/12/15 10:21:18;;;;;;;;;;;9.80;99.90;;;;;;4809944;29;20042;-90
2021/12/15 10:23:45;;;;;;;22.13;12.40;;;9.80;99.90;;;;;;4815506;29;19932;-90
2021/12/15 10:26:11;;;;;;;25.30;13.68;;;9.80;99.90;;;;;;4783871;29;20085;-89
2021/12/15 10:28:38;;;;;;;23.42;12.38;;;9.80;99.90;;;;;;4808347;29;20078;-90
2021/12/15 10:31:11;;;;;;;20.80;11.70;;;9.80;99.90;;;;;;4793991;29;20054;-90
2021/12/15 10:33:44;;;;;;;20.08;11.63;;;9.80;99.90;;;;;;4808105;29;20494;-89
2021/12/15 10:36:18;;;;;;;27.55;11.88;;;9.90;99.90;;;;;;4809107;29;20086;-90
2021/12/15 10:38:45;;;;;;;24.52;12.27;;;9.90;99.90;;;;;;4808455;29;20510;-91
2021/12/15 10:41:39;;;;;;;25.35;11.90;;;9.90;99.90;;;;;;4808899;29;20054;-90
2021/12/15 10:44:15;;;;;;;19.35;11.30;;;9.90;99.90;;;;;;4792550;29;20383;-90
2021/12/15 10:46:59;;;;;;;24.63;12.25;;;9.90;99.90;;;;;;4809002;29;20057;-90
2021/12/15 10:49:36;;;;;;;21.80;10.68;;;9.90;99.90;;;;;;4782740;29;20055;-90
2021/12/15 10:52:06;;;;;;;22.50;12.00;;;9.90;99.90;;;;;;4790499;29;20062;-90
2021/12/15 10:54:40;;;;;;;26.17;12.35;;;10.00;99.90;;;;;;4785062;29;20051;-90
2021/12/15 10:57:15;;;;;;;21.20;10.82;;;10.00;99.90;;;;;;4808729;29;20055;-91
2021/12/15 10:59:56;;;;;;;15.60;10.50;;;10.00;99.90;;;;;;4799053;29;20442;-94
2021/12/15 11:02:32;;;;;;;18.75;10.25;;;10.10;99.90;;;;;;4775518;29;20086;-89
2021/12/15 11:05:02;;;;;;;19.10;11.00;;;10.10;99.90;;;;;;4784828;29;20142;-87
2021/12/15 11:07:30;;;;;;;18.40;11.00;;;10.10;99.90;;;;;;4790096;29;20064;-86
2021/12/15 11:09:58;;;;;;;18.38;10.23;;;10.20;99.90;;;;;;4786620;29;20061;-85
2021/12/15 11:12:41;;;;;;;22.08;10.85;;;10.20;99.90;;;;;;4807771;29;20103;-87
2021/12/15 11:15:31;;;;;;;17.33;9.90;;;10.30;99.90;;;;;;4783346;29;20047;-88
2021/12/15 11:18:03;;;;;;;15.50;8.32;;;10.40;99.90;;;;;;4799148;29;20047;-89
2021/12/15 11:20:40;;;;;;;21.38;9.82;;;10.30;99.90;;;;;;4804871;29;20074;-89
2021/12/15 11:23:13;;;;;;;16.17;8.93;;;10.30;99.90;;;;;;4822796;29;20050;-89
2021/12/15 11:25:45;;;;;;;14.25;8.45;;;10.30;99.90;;;;;;4833026;29;20141;-92
2021/12/15 11:28:19;;;;;;;15.68;10.57;;;10.30;99.90;;;;;;4792715;29;20513;-91
2021/12/15 11:30:54;;;;;;;17.98;8.05;;;10.30;99.90;;;;;;4793021;29;20062;-92
2021/12/15 11:33:23;;;;;;;17.35;8.70;;;10.20;99.90;;;;;;4807723;29;20051;-90
2021/12/15 11:36:12;;;;;;;16.85;8.38;;;10.20;99.90;;;;;;4822132;29;20515;-91
2021/12/15 11:39:05;;;;;;;14.18;8.63;;;10.20;99.90;;;;;;4792296;29;20069;-90
2021/12/15 11:41:37;;;;;;;17.77;8.93;;;10.20;99.90;;;;;;4812327;29;20140;-92
2021/12/15 11:44:11;;;;;;;13.05;7.72;;;9.50;99.90;;;;;;4808465;29;20054;-92
2021/12/15 11:46:50;;;;;;;12.80;8.77;;;10.20;99.90;;;;;;4819147;29;20055;-93
2021/12/15 11:49:18;;;;;;;12.70;8.65;;;10.20;99.90;;;;;;4791322;29;20046;-94
2021/12/15 11:52:02;;;;;;;15.32;8.68;;;10.20;99.90;;;;;;4793555;29;20054;-94
2021/12/15 11:54:33;;;;;;;12.70;7.35;;;10.10;99.90;;;;;;4829365;29;20114;-92
2021/12/15 11:57:02;;;;;;;16.63;8.60;;;10.20;99.90;;;;;;4791869;29;20062;-93
2021/12/15 11:59:30;;;;;;;10.95;7.53;;;10.20;99.90;;;;;;4806662;29;20061;-92
2021/12/15 12:02:25;;;;;;;13.30;7.43;;;10.10;99.90;;;;;;4784455;29;20050;-93
2021/12/15 12:04:56;;;;;;;17.33;6.72;;;10.10;99.90;;;;;;4803023;29;20061;-94
2021/12/15 12:07:27;;;;;;;10.15;6.13;;;10.20;99.90;;;;;;4822209;29;20054;-94
2021/12/15 12:10:04;;;;;;;14.98;7.22;;;10.20;99.90;;;;;;4795088;29;20402;-92
2021/12/15 12:12:38;;;;;;;11.02;6.88;;;10.20;99.90;;;;;;4810516;29;20051;-91
2021/12/15 12:15:14;;;;;;;10.45;6.57;;;10.20;99.90;;;;;;4796734;29;20388;-91
2021/12/15 12:17:42;;;;;;;13.98;7.88;;;10.20;99.90;;;;;;4817661;29;20085;-91
2021/12/15 12:20:19;;;;;;;13.02;7.38;;;10.10;99.90;;;;;;4807635;29;20058;-91
2021/12/15 12:22:48;;;;;;;12.85;7.70;;;10.20;99.90;;;;;;4806167;29;20526;-91
2021/12/15 12:25:28;;;;;;;12.48;7.43;;;10.20;99.90;;;;;;4810950;29;20396;-89
2021/12/15 12:27:58;;;;;;;15.75;7.43;;;10.20;99.90;;;;;;4788547;29;20054;-88
2021/12/15 12:30:31;;;;;;;9.50;6.10;;;10.20;99.90;;;;;;4788899;29;20059;-93
2021/12/15 12:33:08;;;;;;;;;;;;;;;;;;;;;
2021/12/15 12:35:38;;;;;;;15.27;7.10;;;10.20;99.90;;;;;;4793645;29;20050;-92
2021/12/15 12:38:17;;;;;;;14.20;7.25;;;9.50;99.90;;;;;;4808988;29;20054;-92
2021/12/15 12:40:58;;;;;;;11.10;6.15;;;10.20;99.90;;;;;;4810413;29;20042;-92
2021/12/15 12:43:29;;;;;;;11.77;6.40;;;10.20;99.90;;;;;;4824118;29;20054;-91
2021/12/15 12:46:15;;;;;;;11.88;6.47;;;10.20;99.90;;;;;;4808098;29;20167;-90
2021/12/15 12:59:31;;;;;;;6.25;3.90;;;10.20;99.90;;;;;;4804192;29;22524;-92
2021/12/15 13:02:00;;;;;;;7.20;4.28;;;10.20;99.90;;;;;;4821365;29;20062;-89
2021/12/15 13:04:42;;;;;;;10.32;4.45;;;10.20;99.90;;;;;;4804468;29;20518;-91
2021/12/15 13:07:08;;;;;;;6.15;4.00;;;10.10;99.90;;;;;;4784599;29;20054;-90
2021/12/15 13:09:53;;;;;;;4.25;3.00;;;10.10;99.90;;;;;;4816142;29;20594;-92
2021/12/15 13:12:26;;;;;;;8.55;3.80;;;10.10;99.90;;;;;;4787996;29;20058;-89
2021/12/15 13:14:56;;;;;;;7.00;3.58;;;10.10;99.90;;;;;;4819691;29;20058;-90
2021/12/15 13:17:26;;;;;;;3.13;2.67;;;10.10;99.90;;;;;;4822639;29;20054;-90
2021/12/15 13:19:56;;;;;;;5.70;2.95;;;10.00;99.90;;;;;;4803495;29;20097;-90
2021/12/15 13:22:43;;;;;;;6.38;2.40;;;10.00;99.90;;;;;;4798027;29;20051;-89
2021/12/15 13:31:08;;;;;;;5.65;2.53;;;10.00;99.90;;;;;;4822365;29;20121;-91
2021/12/15 13:33:35;;;;;;;2.75;1.98;;;10.00;99.90;;;;;;4836279;29;20129;-91
2021/12/15 13:36:10;;;;;;;2.95;2.25;;;10.10;99.90;;;;;;4822515;29;20196;-90
2021/12/15 13:39:04;;;;;;;5.43;2.95;;;10.10;99.90;;;;;;4777558;29;20047;-90
2021/12/15 13:41:41;;;;;;;6.05;3.85;;;10.30;99.90;;;;;;4822383;29;20542;-91
2021/12/15 13:44:36;;;;;;;7.28;2.97;;;10.30;99.90;;;;;;4806639;29;20059;-91
2021/12/15 13:47:14;;;;;;;4.22;3.22;;;10.30;99.90;;;;;;4807240;29;20081;-90
2021/12/15 13:49:57;;;;;;;3.33;2.47;;;10.20;99.90;;;;;;4782560;29;20050;-92
2021/12/15 13:52:42;;;;;;;6.38;2.78;;;10.10;99.90;;;;;;4806939;29;20050;-91
2021/12/15 13:55:17;;;;;;;4.22;2.22;;;10.00;99.90;;;;;;4818985;29;20050;-90
2021/12/15 13:57:45;;;;;;;4.53;3.03;;;10.00;99.90;;;;;;4807193;29;20074;-91
2021/12/15 14:00:14;;;;;;;4.53;2.50;;;9.90;99.90;;;;;;4812407;29;20053;-90
2021/12/15 14:03:04;;;;;;;8.00;2.83;;;9.90;99.90;;;;;;4806449;29;20125;-90
2021/12/15 14:05:41;;;;;;;4.53;2.53;;;9.80;99.90;;;;;;4835617;29;20061;-91
2021/12/15 14:08:21;;;;;;;6.97;3.00;;;9.80;99.90;;;;;;4811381;29;20074;-91
2021/12/15 14:10:56;;;;;;;6.60;2.58;;;9.70;99.90;;;;;;4791496;29;20054;-86
2021/12/15 14:13:34;;;;;;;4.95;2.80;;;9.70;99.90;;;;;;4815737;29;20050;-88
2021/12/15 14:16:00;;;;;;;9.13;3.90;;;9.70;99.90;;;;;;4809152;29;20051;-89
2021/12/15 14:18:28;;;;;;;6.47;2.77;;;9.70;99.90;;;;;;4833498;29;20046;-88
2021/12/15 14:21:00;;;;;;;7.22;3.55;;;10.40;99.90;;;;;;4822053;29;20042;-87